Bgp Supply II — HP6535 — position and weather

sailwx.info

Track history (hours):
 
Tides and Currents Weather Stations Pressure Air Temp Water Temp Dewpoint Dewpoint Depression Visibility Wind Speed Wind Dir Waves Ship Positions

Bgp Supply II

Last reported at 2017-Dec-04 10:30 UTC. Time now 2018-Feb-24 00:33 UTC.
Position N 35°57' E 013°57'.
Warning: this ship's position is months out of date.

Length 62 m; draft 4.5 m.

Type: Tug. MMSI: 371583000.

Date/timePositionNaut miles runAvg speedWind from/ knotsBaromVisibWave heightAir tempDewpointWater temp
2017-Dec-04 10:30N 35°57' E 013°57'5 9.1
2017-Dec-04 10:00N 35°59' E 013°53'  
2017-Nov-30 01:37N 36°00' W 005°14'211.5
2017-Nov-30 01:26N 35°60' W 005°17'511.3
2017-Nov-30 01:00N 35°58' W 005°22'511.0
2017-Nov-30 00:30N 35°57' W 005°29'  
2017-Nov-27 07:59N 29°25' W 014°00'4 9.3
2017-Nov-27 07:30N 29°21' W 014°04'7 9.2
2017-Nov-27 06:44N 29°16' W 014°09'2 8.9
2017-Nov-27 06:30N 29°15' W 014°10'4 8.9
2017-Nov-27 06:00N 29°11' W 014°14'4 8.8
2017-Nov-27 05:30N 29°08' W 014°17'4 8.8
2017-Nov-27 05:00N 29°05' W 014°21'4 8.7
2017-Nov-27 04:30N 29°02' W 014°25'4 8.7
2017-Nov-27 04:00N 28°59' W 014°28'4 8.7
2017-Nov-27 03:30N 28°56' W 014°31'4 8.9
2017-Nov-27 03:00N 28°52' W 014°35'4 9.0
2017-Nov-27 02:30N 28°49' W 014°38'4 9.0
2017-Nov-27 02:00N 28°46' W 014°41'4 9.0
2017-Nov-27 01:30N 28°42' W 014°45'5 9.1
2017-Nov-27 01:00N 28°39' W 014°49'5 9.1
2017-Nov-27 00:30N 28°36' W 014°52'5 9.1
2017-Nov-27 00:00N 28°32' W 014°56'5 9.1
2017-Nov-26 23:30N 28°29' W 014°59'5 9.1
2017-Nov-26 23:00N 28°26' W 015°03'4 8.9
2017-Nov-26 22:30N 28°23' W 015°06'4 9.0
2017-Nov-26 22:00N 28°19' W 015°10'5 9.0
2017-Nov-26 21:30N 28°16' W 015°13'5 9.3
2017-Nov-26 21:00N 28°13' W 015°17'5 9.3
2017-Nov-26 20:30N 28°09' W 015°20'2 3.8
2017-Nov-26 20:00N 28°07' W 015°21'3 6.2
2017-Nov-26 19:30N 28°05' W 015°19'5 9.1
2017-Nov-26 19:00N 28°01' W 015°16'4 8.6
2017-Nov-26 18:30N 27°57' W 015°15'4 8.9
2017-Nov-26 18:00N 27°52' W 015°15'5 9.3
2017-Nov-26 17:30N 27°48' W 015°15'5 9.5
2017-Nov-26 17:00N 27°43' W 015°15'5 9.3
2017-Nov-26 16:30N 27°38' W 015°16'5 8.9
2017-Nov-26 15:59N 27°34' W 015°17'  
Track history (hours):
 
Tides and Currents Weather Stations Pressure Air Temp Water Temp Dewpoint Dewpoint Depression Visibility Wind Speed Wind Dir Waves Ship Positions

Bgp Supply II

Last reported at 2017-Dec-04 10:30 UTC. Time now 2018-Feb-24 00:33 UTC.
Position N 35°57' E 013°57'.
Warning: this ship's position is months out of date.

Length 62 m; draft 4.5 m.

Type: Tug. MMSI: 371583000.

Date/timePositionNaut miles runAvg speedWind from/ knotsBaromVisibWave heightAir tempDewpointWater temp
2017-Dec-04 10:30N 35°57' E 013°57'5 9.1
2017-Dec-04 10:00N 35°59' E 013°53'  
2017-Nov-30 01:37N 36°00' W 005°14'211.5
2017-Nov-30 01:26N 35°60' W 005°17'511.3
2017-Nov-30 01:00N 35°58' W 005°22'511.0
2017-Nov-30 00:30N 35°57' W 005°29'  
2017-Nov-27 07:59N 29°25' W 014°00'4 9.3
2017-Nov-27 07:30N 29°21' W 014°04'7 9.2
2017-Nov-27 06:44N 29°16' W 014°09'2 8.9
2017-Nov-27 06:30N 29°15' W 014°10'4 8.9
2017-Nov-27 06:00N 29°11' W 014°14'4 8.8
2017-Nov-27 05:30N 29°08' W 014°17'4 8.8
2017-Nov-27 05:00N 29°05' W 014°21'4 8.7
2017-Nov-27 04:30N 29°02' W 014°25'4 8.7
2017-Nov-27 04:00N 28°59' W 014°28'4 8.7
2017-Nov-27 03:30N 28°56' W 014°31'4 8.9
2017-Nov-27 03:00N 28°52' W 014°35'4 9.0
2017-Nov-27 02:30N 28°49' W 014°38'4 9.0
2017-Nov-27 02:00N 28°46' W 014°41'4 9.0
2017-Nov-27 01:30N 28°42' W 014°45'5 9.1
2017-Nov-27 01:00N 28°39' W 014°49'5 9.1
2017-Nov-27 00:30N 28°36' W 014°52'5 9.1
2017-Nov-27 00:00N 28°32' W 014°56'5 9.1
2017-Nov-26 23:30N 28°29' W 014°59'5 9.1
2017-Nov-26 23:00N 28°26' W 015°03'4 8.9
2017-Nov-26 22:30N 28°23' W 015°06'4 9.0
2017-Nov-26 22:00N 28°19' W 015°10'5 9.0
2017-Nov-26 21:30N 28°16' W 015°13'5 9.3
2017-Nov-26 21:00N 28°13' W 015°17'5 9.3
2017-Nov-26 20:30N 28°09' W 015°20'2 3.8
2017-Nov-26 20:00N 28°07' W 015°21'3 6.2
2017-Nov-26 19:30N 28°05' W 015°19'5 9.1
2017-Nov-26 19:00N 28°01' W 015°16'4 8.6
2017-Nov-26 18:30N 27°57' W 015°15'4 8.9
2017-Nov-26 18:00N 27°52' W 015°15'5 9.3
2017-Nov-26 17:30N 27°48' W 015°15'5 9.5
2017-Nov-26 17:00N 27°43' W 015°15'5 9.3
2017-Nov-26 16:30N 27°38' W 015°16'5 8.9
2017-Nov-26 15:59N 27°34' W 015°17'  

Dump ship's entire track history